Terminal Aerodrome Forecast
Issued by NWS North Platte, NE

Home | Current Version | Previous Version | Text Only | Print | Product List | Glossary On
Versions: 1 2 3 4 5 6 7 8 9 10 11 12 13 14 15 16 17
000
FTUS43 KLBF 012300
TAFLBF
TAF
KLBF 012322Z 0200/0224 36018G24KT P6SM SCT100 SCT200
      TEMPO 0202/0205 32022G32KT SHRA OVC060
     FM020500 35012G19KT P6SM BKN080
     FM020900 33004KT P6SM SCT080
     FM021800 34006KT P6SM OVC100 PROB30 0218/0224 P6SM -SHRA
      OVC080=

USA.gov is the U.S. government's official web portal to all federal, state and local government web resources and services.